createdAt,value
2017-12-31T00:01:06.139Z,89.80
2017-12-31T00:03:33.711Z,90.00
2017-12-31T00:06:01.284Z,89.90
2017-12-31T00:08:28.800Z,89.90
2017-12-31T00:10:56.350Z,90.00
2017-12-31T00:13:24.631Z,90.50
2017-12-31T00:15:52.941Z,90.70
2017-12-31T00:18:20.451Z,90.70
2017-12-31T00:20:48.004Z,90.80
2017-12-31T00:23:15.551Z,91.10
2017-12-31T00:25:43.867Z,91.50
2017-12-31T00:28:11.382Z,91.50
2017-12-31T00:30:38.960Z,92.10
2017-12-31T00:33:06.475Z,92.10
2017-12-31T00:35:33.987Z,92.70
2017-12-31T00:38:01.532Z,93.00
2017-12-31T00:40:29.041Z,94.00
2017-12-31T00:42:56.609Z,94.20
2017-12-31T00:45:24.129Z,94.60
2017-12-31T00:47:51.672Z,94.80
2017-12-31T00:50:19.966Z,95.60
2017-12-31T00:52:48.285Z,96.10
2017-12-31T00:55:15.787Z,96.10
2017-12-31T00:57:43.300Z,96.40
2017-12-31T01:00:10.851Z,96.60
2017-12-31T01:02:38.378Z,96.90
2017-12-31T01:05:05.927Z,97.40
2017-12-31T01:07:33.444Z,97.00
2017-12-31T01:10:00.991Z,97.40
2017-12-31T01:12:28.500Z,97.40
2017-12-31T01:14:56.039Z,97.70
2017-12-31T01:17:23.554Z,97.80
2017-12-31T01:19:51.135Z,98.00
2017-12-31T01:22:18.652Z,97.90
2017-12-31T01:24:46.159Z,97.90
2017-12-31T01:27:13.705Z,98.00
2017-12-31T01:29:41.216Z,98.10
2017-12-31T01:32:08.763Z,98.10
2017-12-31T01:34:36.271Z,97.70
2017-12-31T01:37:04.582Z,98.30
2017-12-31T01:39:33.042Z,98.10
2017-12-31T01:42:00.591Z,98.10
2017-12-31T01:44:28.102Z,98.40
2017-12-31T01:46:56.424Z,98.60
2017-12-31T01:49:23.936Z,98.60
2017-12-31T01:51:52.321Z,98.70
2017-12-31T01:54:19.867Z,98.90
2017-12-31T01:56:47.387Z,99.10
2017-12-31T01:59:15.701Z,99.40
2017-12-31T02:01:43.209Z,99.40
2017-12-31T02:04:10.748Z,99.60
2017-12-31T02:06:38.273Z,99.10
2017-12-31T02:09:05.811Z,99.00
2017-12-31T02:14:24.716Z,99.90
2017-12-31T02:16:52.219Z,99.90
2017-12-31T02:19:20.471Z,99.90
2017-12-31T02:21:48.008Z,99.90
2017-12-31T02:24:15.505Z,99.90
2017-12-31T02:26:43.056Z,99.60
2017-12-31T02:29:11.325Z,99.90
2017-12-31T02:31:38.871Z,99.90
2017-12-31T02:34:06.407Z,99.60
2017-12-31T02:36:33.967Z,99.10
2017-12-31T02:39:01.481Z,99.10
2017-12-31T02:41:29.030Z,99.90
2017-12-31T02:43:56.537Z,99.90
2017-12-31T02:46:24.123Z,99.90
2017-12-31T02:48:51.628Z,99.90
2017-12-31T02:51:19.898Z,99.90
2017-12-31T02:53:47.448Z,99.90
2017-12-31T02:56:14.956Z,99.90
2017-12-31T02:58:43.274Z,99.90
2017-12-31T03:01:10.780Z,99.90
2017-12-31T03:03:38.321Z,99.90
2017-12-31T03:06:05.831Z,99.90
2017-12-31T03:08:33.391Z,99.90
2017-12-31T03:11:00.898Z,99.90
2017-12-31T03:13:28.411Z,99.90
2017-12-31T03:15:55.959Z,99.90
2017-12-31T03:18:23.483Z,99.90
2017-12-31T03:20:51.030Z,99.90
2017-12-31T03:23:18.536Z,99.90
2017-12-31T03:25:46.084Z,99.90
2017-12-31T03:28:13.591Z,99.90
2017-12-31T03:30:41.138Z,99.90
2017-12-31T03:33:08.639Z,99.90
2017-12-31T03:35:36.187Z,99.90
2017-12-31T03:38:03.698Z,99.90
2017-12-31T03:40:32.691Z,99.90
2017-12-31T03:43:00.241Z,99.90
2017-12-31T03:45:27.755Z,99.90
2017-12-31T03:47:55.309Z,99.90
2017-12-31T03:50:23.582Z,99.90
2017-12-31T03:52:51.123Z,99.90
2017-12-31T03:55:18.631Z,99.90
2017-12-31T03:57:46.207Z,99.90
2017-12-31T04:00:14.486Z,99.90
2017-12-31T04:02:42.007Z,99.90
2017-12-31T04:05:09.567Z,99.90
2017-12-31T04:07:37.088Z,99.90
2017-12-31T04:10:04.628Z,99.90
2017-12-31T04:12:32.141Z,99.90
2017-12-31T04:14:59.696Z,99.90
2017-12-31T04:17:27.209Z,99.90
2017-12-31T04:19:55.530Z,99.90
2017-12-31T04:22:23.060Z,99.90
2017-12-31T04:24:50.615Z,99.90
2017-12-31T04:27:18.135Z,98.60
2017-12-31T04:29:45.687Z,98.20
2017-12-31T04:32:13.963Z,96.90
2017-12-31T04:34:41.523Z,96.90
2017-12-31T04:37:09.029Z,97.30
2017-12-31T04:39:37.315Z,96.20
2017-12-31T04:42:05.625Z,96.10
2017-12-31T04:44:33.134Z,96.10
2017-12-31T04:47:00.689Z,96.20
2017-12-31T04:49:28.190Z,96.00
2017-12-31T04:51:55.742Z,95.80
2017-12-31T04:54:23.266Z,95.50
2017-12-31T04:56:50.803Z,94.50
2017-12-31T04:59:18.309Z,94.30
2017-12-31T05:01:46.618Z,93.40
2017-12-31T05:04:14.141Z,93.30
2017-12-31T05:06:41.972Z,93.60
2017-12-31T05:09:09.494Z,93.20
2017-12-31T05:11:37.020Z,92.70
2017-12-31T05:14:04.616Z,92.60
2017-12-31T05:16:32.128Z,92.40
2017-12-31T05:18:59.670Z,91.30
2017-12-31T05:21:27.179Z,91.50
2017-12-31T05:23:55.516Z,91.60
2017-12-31T05:26:23.035Z,91.60
2017-12-31T05:28:51.322Z,91.90
2017-12-31T05:31:18.872Z,91.90
2017-12-31T05:33:46.383Z,91.30
2017-12-31T05:36:14.705Z,91.80
2017-12-31T05:38:42.220Z,91.80
2017-12-31T05:41:09.771Z,91.60
2017-12-31T05:43:37.291Z,91.50
2017-12-31T05:46:04.864Z,91.10
2017-12-31T05:48:32.374Z,91.20
2017-12-31T05:50:59.935Z,91.40
2017-12-31T05:53:27.459Z,91.60
2017-12-31T05:55:54.988Z,91.30
2017-12-31T05:58:22.540Z,91.30
2017-12-31T06:00:50.067Z,91.20
2017-12-31T06:03:17.623Z,91.10
2017-12-31T06:05:45.184Z,90.90
2017-12-31T06:08:12.742Z,90.80
2017-12-31T06:10:40.261Z,90.20
2017-12-31T06:13:08.572Z,89.00
2017-12-31T06:15:36.083Z,89.00
2017-12-31T06:18:03.667Z,89.40
2017-12-31T06:20:31.188Z,89.40
2017-12-31T06:22:58.700Z,90.00
2017-12-31T06:25:26.303Z,90.00
2017-12-31T06:27:53.827Z,89.90
2017-12-31T06:30:21.435Z,89.50
2017-12-31T06:32:48.939Z,90.00
2017-12-31T06:35:17.253Z,90.20
2017-12-31T06:37:44.761Z,90.10
2017-12-31T06:40:12.335Z,89.00
2017-12-31T06:42:39.846Z,89.30
2017-12-31T06:45:08.122Z,88.00
2017-12-31T06:47:35.750Z,88.00
2017-12-31T06:50:03.268Z,88.20
2017-12-31T06:52:30.819Z,87.20
2017-12-31T06:54:58.327Z,87.80
2017-12-31T06:57:25.872Z,87.30
2017-12-31T06:59:53.388Z,85.90
2017-12-31T07:02:20.939Z,86.00
2017-12-31T07:04:49.258Z,86.60
2017-12-31T07:07:16.759Z,86.60
2017-12-31T07:09:44.308Z,87.50
2017-12-31T07:12:11.811Z,87.60
2017-12-31T07:14:39.368Z,87.60
2017-12-31T07:17:06.879Z,88.00
2017-12-31T07:19:35.220Z,88.60
2017-12-31T07:22:02.728Z,88.50
2017-12-31T07:24:30.291Z,88.00
2017-12-31T07:26:57.807Z,86.30
2017-12-31T07:29:25.368Z,86.80
2017-12-31T07:31:53.651Z,86.10
2017-12-31T07:34:22.949Z,86.40
2017-12-31T07:36:50.512Z,86.30
2017-12-31T07:39:18.023Z,85.30
2017-12-31T07:41:45.579Z,84.60
2017-12-31T07:44:13.084Z,84.40
2017-12-31T07:46:40.636Z,84.10
2017-12-31T07:49:08.171Z,84.40
2017-12-31T07:51:35.718Z,84.30
2017-12-31T07:54:03.231Z,84.80
2017-12-31T07:56:31.348Z,84.70
2017-12-31T07:58:58.861Z,85.20
2017-12-31T08:01:26.419Z,83.80
2017-12-31T08:03:53.931Z,84.30
2017-12-31T08:06:21.444Z,84.10
2017-12-31T08:08:49.002Z,82.10
2017-12-31T08:11:16.534Z,81.30
2017-12-31T08:13:44.083Z,79.90
2017-12-31T08:16:11.631Z,79.70
2017-12-31T08:18:39.179Z,79.00
2017-12-31T08:21:06.685Z,79.60
2017-12-31T08:23:34.237Z,78.50
2017-12-31T08:26:01.767Z,79.00
2017-12-31T08:28:29.322Z,79.20
2017-12-31T08:30:56.827Z,79.90
2017-12-31T08:33:25.112Z,79.20
2017-12-31T08:35:52.667Z,79.20
2017-12-31T08:38:20.180Z,80.00
2017-12-31T08:40:47.733Z,80.10
2017-12-31T08:43:16.019Z,78.20
2017-12-31T08:45:44.510Z,78.20
2017-12-31T08:48:12.099Z,78.60
2017-12-31T08:50:39.641Z,78.80
2017-12-31T08:53:07.160Z,78.00
2017-12-31T08:55:34.732Z,78.00
2017-12-31T08:58:02.252Z,78.30
2017-12-31T09:00:29.876Z,78.40
2017-12-31T09:02:57.431Z,78.00
2017-12-31T09:05:24.961Z,78.30
2017-12-31T09:07:52.495Z,78.30
2017-12-31T09:10:20.012Z,78.20
2017-12-31T09:12:47.568Z,78.00
2017-12-31T09:15:15.067Z,77.90
2017-12-31T09:17:42.619Z,77.60
2017-12-31T09:20:10.118Z,78.40
2017-12-31T09:22:37.667Z,79.20
2017-12-31T09:25:05.184Z,79.60
2017-12-31T09:27:32.748Z,80.10
2017-12-31T09:30:01.039Z,79.80
2017-12-31T09:32:28.629Z,79.60
2017-12-31T09:34:57.925Z,79.10
2017-12-31T09:37:26.210Z,78.20
2017-12-31T09:39:53.764Z,78.10
2017-12-31T09:42:21.291Z,78.00
2017-12-31T09:44:48.879Z,77.70
2017-12-31T09:47:16.398Z,77.50
2017-12-31T09:49:43.947Z,77.80
2017-12-31T09:52:11.499Z,78.20
2017-12-31T09:54:39.048Z,78.80
2017-12-31T09:57:06.560Z,79.00
2017-12-31T09:59:34.095Z,79.40
2017-12-31T10:02:01.642Z,80.10
2017-12-31T10:04:29.945Z,80.80
2017-12-31T10:06:57.488Z,80.90
2017-12-31T10:09:24.999Z,81.10
2017-12-31T10:11:52.574Z,80.80
2017-12-31T10:14:20.075Z,80.60
2017-12-31T10:16:47.600Z,80.80
2017-12-31T10:19:15.139Z,80.80
2017-12-31T10:21:42.643Z,80.50
2017-12-31T10:24:10.191Z,79.40
2017-12-31T10:26:37.696Z,79.40
2017-12-31T10:29:05.241Z,79.90
2017-12-31T10:31:33.518Z,79.10
2017-12-31T10:34:01.023Z,79.10
2017-12-31T10:36:28.602Z,78.80
2017-12-31T10:38:56.107Z,79.50
2017-12-31T10:41:23.646Z,80.00
2017-12-31T10:43:51.159Z,80.30
2017-12-31T10:46:18.709Z,79.70
2017-12-31T10:48:46.211Z,79.80
2017-12-31T10:51:13.808Z,80.50
2017-12-31T10:53:42.095Z,82.00
2017-12-31T10:56:10.419Z,82.00
2017-12-31T10:58:37.928Z,82.00
2017-12-31T11:01:05.441Z,82.50
2017-12-31T11:03:32.996Z,82.00
2017-12-31T11:06:01.271Z,82.00
2017-12-31T11:08:28.823Z,81.90
2017-12-31T11:10:56.333Z,82.20
2017-12-31T11:13:25.412Z,82.10
2017-12-31T11:15:52.930Z,82.10
2017-12-31T11:18:20.487Z,82.50
2017-12-31T11:20:47.996Z,81.80
2017-12-31T11:23:15.523Z,82.30
2017-12-31T11:25:43.831Z,79.30
2017-12-31T11:28:11.348Z,79.30
2017-12-31T11:30:38.890Z,77.50
2017-12-31T11:33:06.427Z,75.60
2017-12-31T11:35:33.989Z,74.00
2017-12-31T11:38:01.510Z,74.30
2017-12-31T11:40:29.067Z,74.80
2017-12-31T11:42:56.573Z,74.50
2017-12-31T11:45:24.123Z,75.20
2017-12-31T11:47:51.650Z,76.30
2017-12-31T11:50:19.983Z,78.20
2017-12-31T11:52:47.496Z,78.00
2017-12-31T11:55:15.076Z,78.70
2017-12-31T11:57:42.596Z,79.50
2017-12-31T12:00:10.163Z,80.10
2017-12-31T12:02:37.669Z,81.40
2017-12-31T12:05:05.175Z,81.80
2017-12-31T12:07:32.718Z,83.30
2017-12-31T12:10:00.231Z,83.40
2017-12-31T12:12:27.780Z,84.60
2017-12-31T12:14:55.300Z,85.00
2017-12-31T12:17:22.860Z,85.10
2017-12-31T12:19:50.363Z,85.00
2017-12-31T12:22:17.906Z,84.30
2017-12-31T12:24:45.415Z,83.80
2017-12-31T12:27:12.963Z,84.00
2017-12-31T12:29:40.475Z,82.60
2017-12-31T12:32:08.024Z,82.20
2017-12-31T12:34:35.537Z,81.80
2017-12-31T12:37:03.107Z,80.90
2017-12-31T12:39:30.628Z,80.70
2017-12-31T12:41:58.197Z,80.60
2017-12-31T12:44:25.707Z,79.60
2017-12-31T12:46:53.215Z,79.30
2017-12-31T12:49:21.523Z,77.40
2017-12-31T12:51:49.027Z,77.40
2017-12-31T12:54:16.581Z,76.50
2017-12-31T12:56:44.088Z,76.00
2017-12-31T12:59:11.641Z,75.50
2017-12-31T13:01:39.147Z,74.30
2017-12-31T13:04:07.680Z,74.10
2017-12-31T13:06:35.191Z,74.60
2017-12-31T13:09:02.743Z,73.70
2017-12-31T13:11:30.259Z,73.50
2017-12-31T13:13:57.808Z,72.10
2017-12-31T13:16:25.316Z,71.20
2017-12-31T13:18:53.596Z,71.10
2017-12-31T13:21:21.143Z,71.00
2017-12-31T13:23:48.667Z,70.60
2017-12-31T13:26:16.209Z,71.30
2017-12-31T13:28:44.483Z,70.80
2017-12-31T13:31:12.093Z,70.80
2017-12-31T13:33:39.613Z,70.30
2017-12-31T13:36:07.164Z,69.90
2017-12-31T13:38:34.665Z,70.60
2017-12-31T13:41:02.211Z,70.20
2017-12-31T13:43:29.721Z,70.20
2017-12-31T13:45:57.288Z,69.80
2017-12-31T13:48:24.905Z,70.00
2017-12-31T13:50:52.411Z,70.40
2017-12-31T13:53:21.268Z,69.60
2017-12-31T13:55:49.540Z,68.80
2017-12-31T13:58:17.077Z,68.80
2017-12-31T14:00:44.589Z,69.10
2017-12-31T14:03:12.896Z,69.30
2017-12-31T14:05:40.399Z,69.30
2017-12-31T14:08:07.960Z,69.00
2017-12-31T14:10:35.482Z,68.70
2017-12-31T14:13:02.995Z,69.70
2017-12-31T14:15:30.552Z,69.40
2017-12-31T14:17:58.068Z,69.00
2017-12-31T14:20:25.611Z,69.30
2017-12-31T14:22:53.118Z,69.10
2017-12-31T14:25:20.688Z,69.90
2017-12-31T14:27:48.199Z,69.60
2017-12-31T14:30:16.509Z,69.40
2017-12-31T14:32:44.018Z,69.30
2017-12-31T14:35:11.597Z,69.30
2017-12-31T14:37:39.162Z,69.30
2017-12-31T14:40:06.693Z,69.00
2017-12-31T14:42:34.243Z,69.70
2017-12-31T14:45:02.515Z,70.30
2017-12-31T14:47:30.065Z,70.30
2017-12-31T14:49:57.571Z,69.40
2017-12-31T14:52:25.115Z,69.10
2017-12-31T14:54:52.623Z,69.10
2017-12-31T14:57:20.180Z,69.50
2017-12-31T14:59:47.690Z,69.70
2017-12-31T15:02:15.255Z,68.20
2017-12-31T15:04:43.499Z,68.60
2017-12-31T15:07:11.010Z,68.80
2017-12-31T15:09:39.323Z,68.80
2017-12-31T15:12:06.841Z,68.80
2017-12-31T15:14:34.387Z,69.50
2017-12-31T15:17:01.927Z,69.50
2017-12-31T15:19:29.479Z,69.20
2017-12-31T15:21:56.991Z,69.30
2017-12-31T15:24:24.553Z,69.20
2017-12-31T15:26:52.055Z,69.10
2017-12-31T15:29:19.567Z,69.70
2017-12-31T15:31:47.890Z,69.90
2017-12-31T15:34:15.392Z,69.80
2017-12-31T15:36:42.942Z,70.10
2017-12-31T15:39:10.459Z,70.00
2017-12-31T15:41:38.016Z,70.10
2017-12-31T15:44:05.519Z,70.40
2017-12-31T15:46:33.823Z,69.80
2017-12-31T15:49:01.331Z,69.80
2017-12-31T15:51:28.900Z,69.70
2017-12-31T15:53:56.455Z,69.90
2017-12-31T15:56:23.963Z,70.20
2017-12-31T15:58:51.566Z,70.60
2017-12-31T16:01:19.098Z,71.10
2017-12-31T16:03:46.647Z,71.30
2017-12-31T16:06:14.147Z,71.30
2017-12-31T16:08:41.694Z,70.30
2017-12-31T16:11:09.207Z,70.80
2017-12-31T16:13:36.755Z,71.10
2017-12-31T16:16:04.269Z,71.20
2017-12-31T16:18:32.592Z,71.30
2017-12-31T16:21:00.256Z,71.30
2017-12-31T16:23:27.820Z,71.20
2017-12-31T16:25:55.456Z,71.90
2017-12-31T16:28:22.968Z,72.30
2017-12-31T16:30:50.525Z,72.80
2017-12-31T16:33:18.798Z,72.10
2017-12-31T16:35:46.339Z,72.10
2017-12-31T16:38:13.859Z,72.70
2017-12-31T16:40:42.171Z,72.20
2017-12-31T16:43:09.680Z,72.90
2017-12-31T16:45:37.223Z,72.70
2017-12-31T16:48:04.728Z,72.70
2017-12-31T16:50:32.285Z,72.60
2017-12-31T16:52:59.791Z,72.60
2017-12-31T16:55:27.299Z,72.70
2017-12-31T16:57:54.838Z,72.00
2017-12-31T17:00:22.339Z,71.20
2017-12-31T17:02:50.655Z,70.50
2017-12-31T17:05:18.159Z,70.50
2017-12-31T17:07:45.708Z,71.10
2017-12-31T17:10:13.223Z,70.40
2017-12-31T17:12:41.531Z,70.50
2017-12-31T17:15:09.470Z,70.50
2017-12-31T17:17:37.028Z,69.70
2017-12-31T17:20:04.547Z,69.60
2017-12-31T17:22:32.823Z,69.60
2017-12-31T17:25:01.180Z,69.70
2017-12-31T17:27:29.455Z,70.10
2017-12-31T17:29:56.994Z,70.10
2017-12-31T17:32:24.502Z,70.10
2017-12-31T17:34:52.052Z,69.60
2017-12-31T17:37:19.558Z,69.70
2017-12-31T17:39:47.104Z,70.20
2017-12-31T17:42:14.617Z,70.60
2017-12-31T17:44:42.182Z,69.70
2017-12-31T17:47:09.735Z,69.40
2017-12-31T17:49:37.242Z,68.50
2017-12-31T17:52:04.799Z,69.00
2017-12-31T17:54:32.303Z,68.80
2017-12-31T17:57:00.635Z,69.40
2017-12-31T17:59:28.187Z,69.40
2017-12-31T18:01:55.857Z,68.80
2017-12-31T18:04:23.372Z,68.80
2017-12-31T18:06:50.912Z,69.00
2017-12-31T18:09:18.419Z,69.20
2017-12-31T18:11:46.740Z,68.40
2017-12-31T18:14:15.024Z,68.70
2017-12-31T18:16:43.359Z,68.90
2017-12-31T18:19:10.875Z,68.90
2017-12-31T18:21:38.446Z,68.90
2017-12-31T18:24:05.950Z,68.40
2017-12-31T18:26:34.225Z,69.00
2017-12-31T18:29:02.539Z,68.80
2017-12-31T18:31:30.047Z,68.80
2017-12-31T18:33:57.590Z,68.60
2017-12-31T18:36:25.111Z,69.50
2017-12-31T18:38:52.960Z,69.50
2017-12-31T18:41:20.483Z,68.80
2017-12-31T18:43:48.795Z,69.00
2017-12-31T18:46:16.310Z,69.00
2017-12-31T18:48:43.865Z,68.60
2017-12-31T18:51:11.375Z,69.30
2017-12-31T18:53:38.882Z,69.10
2017-12-31T18:56:06.651Z,69.60
2017-12-31T18:58:34.929Z,69.30
2017-12-31T19:01:02.471Z,69.30
2017-12-31T19:03:29.984Z,69.00
2017-12-31T19:05:57.531Z,69.40
2017-12-31T19:08:25.050Z,69.20
2017-12-31T19:10:52.607Z,68.70
2017-12-31T19:13:20.114Z,68.60
2017-12-31T19:15:47.665Z,68.30
2017-12-31T19:18:15.187Z,68.60
2017-12-31T19:20:42.730Z,68.40
2017-12-31T19:23:10.246Z,69.60
2017-12-31T19:25:38.584Z,68.20
2017-12-31T19:28:06.094Z,68.20
2017-12-31T19:30:33.594Z,68.20
2017-12-31T19:33:01.146Z,68.30
2017-12-31T19:35:28.653Z,68.70
2017-12-31T19:37:56.194Z,69.00
2017-12-31T19:40:24.476Z,69.00
2017-12-31T19:42:52.019Z,69.80
2017-12-31T19:45:19.532Z,68.60
2017-12-31T19:47:47.847Z,68.90
2017-12-31T19:50:15.358Z,68.90
2017-12-31T19:52:42.914Z,68.90
2017-12-31T19:55:10.419Z,69.50
2017-12-31T19:57:37.962Z,70.00
2017-12-31T20:00:05.471Z,70.00
2017-12-31T20:02:33.064Z,70.30
2017-12-31T20:05:01.411Z,70.30
2017-12-31T20:07:28.915Z,69.80
2017-12-31T20:09:57.227Z,69.70
2017-12-31T20:12:24.732Z,69.70
2017-12-31T20:14:52.278Z,69.50
2017-12-31T20:17:19.791Z,69.90
2017-12-31T20:19:47.327Z,69.80
2017-12-31T20:22:14.827Z,70.00
2017-12-31T20:24:42.395Z,70.00
2017-12-31T20:27:09.906Z,70.10
2017-12-31T20:29:37.570Z,70.30
2017-12-31T20:32:05.151Z,70.30
2017-12-31T20:34:33.426Z,71.90
2017-12-31T20:37:00.966Z,71.90
2017-12-31T20:39:28.473Z,72.00
2017-12-31T20:41:56.017Z,73.70
2017-12-31T20:44:23.578Z,75.70
2017-12-31T20:46:51.132Z,76.00
2017-12-31T20:49:18.636Z,78.60
2017-12-31T20:51:46.179Z,80.70
2017-12-31T20:54:13.687Z,82.20
2017-12-31T20:56:41.235Z,83.30
2017-12-31T20:59:08.743Z,84.30
2017-12-31T21:01:37.288Z,83.20
2017-12-31T21:04:04.800Z,79.30
2017-12-31T21:06:32.305Z,78.60
2017-12-31T21:09:00.675Z,78.30
2017-12-31T21:11:28.199Z,78.30
2017-12-31T21:13:55.752Z,79.10
2017-12-31T21:16:23.263Z,79.20
2017-12-31T21:18:50.811Z,78.50
2017-12-31T21:21:18.315Z,78.80
2017-12-31T21:23:45.855Z,78.10
2017-12-31T21:26:13.861Z,78.00
2017-12-31T21:28:41.435Z,77.80
2017-12-31T21:31:08.964Z,77.40
2017-12-31T21:33:36.491Z,78.30
2017-12-31T21:36:04.045Z,78.80
2017-12-31T21:38:31.551Z,79.50
2017-12-31T21:40:59.099Z,79.80
2017-12-31T21:43:26.607Z,81.50
2017-12-31T21:45:54.155Z,79.30
2017-12-31T21:48:21.679Z,79.80
2017-12-31T21:50:49.235Z,79.80
2017-12-31T21:53:17.542Z,80.00
2017-12-31T21:55:45.043Z,79.90
2017-12-31T21:58:12.595Z,80.50
2017-12-31T22:00:40.094Z,80.60
2017-12-31T22:03:07.634Z,81.20
2017-12-31T22:05:35.160Z,82.00
2017-12-31T22:08:02.702Z,82.70
2017-12-31T22:10:30.203Z,82.70
2017-12-31T22:12:57.747Z,83.30
2017-12-31T22:15:25.258Z,84.00
2017-12-31T22:17:53.574Z,83.70
2017-12-31T22:20:21.083Z,83.70
2017-12-31T22:22:48.639Z,84.20
2017-12-31T22:25:16.195Z,84.60
2017-12-31T22:27:44.499Z,84.50
2017-12-31T22:30:12.048Z,84.70
2017-12-31T22:32:39.559Z,84.30
2017-12-31T22:35:07.135Z,84.10
2017-12-31T22:37:34.656Z,84.50
2017-12-31T22:40:02.202Z,84.80
2017-12-31T22:42:29.748Z,84.30
2017-12-31T22:44:57.289Z,84.40
2017-12-31T22:47:24.808Z,84.60
2017-12-31T22:49:52.368Z,84.80
2017-12-31T22:52:19.876Z,84.90
2017-12-31T22:54:48.190Z,85.20
2017-12-31T22:57:15.700Z,85.20
2017-12-31T22:59:43.267Z,84.60
2017-12-31T23:02:10.779Z,84.20
2017-12-31T23:04:38.784Z,84.50
2017-12-31T23:07:06.339Z,85.00
2017-12-31T23:09:33.866Z,85.60
2017-12-31T23:12:01.413Z,84.20
2017-12-31T23:14:29.551Z,82.80
2017-12-31T23:16:57.110Z,82.30
2017-12-31T23:19:24.631Z,82.40
2017-12-31T23:21:52.210Z,82.40
2017-12-31T23:24:19.718Z,80.20
2017-12-31T23:26:47.449Z,79.90
2017-12-31T23:29:14.959Z,79.50
2017-12-31T23:31:42.509Z,79.30
2017-12-31T23:34:10.040Z,79.10
2017-12-31T23:36:38.355Z,78.60
2017-12-31T23:39:05.903Z,78.40
2017-12-31T23:41:34.213Z,77.40
2017-12-31T23:44:01.765Z,77.50
2017-12-31T23:46:29.279Z,78.10
2017-12-31T23:48:56.843Z,78.30
2017-12-31T23:51:24.355Z,78.80
2017-12-31T23:53:51.952Z,79.00
2017-12-31T23:56:19.486Z,78.80
2017-12-31T23:58:47.040Z,79.40
